Time;durP1;ratioP1;P1;durP2;ratioP2;P2;SDS_P1;SDS_P2;PMS_P1;PMS_P2;Temp;Humidity;BMP_temperature;BMP_pressure;BME280_temperature;BME280_humidity;BME280_pressure;Samples;Min_cycle;Max_cycle;Signal;HPM_P1;HPM_P2
2022/11/22 00:02:12;;;;;;;63.10;7.38;;;;;;;;;;5085485;28;20449;-80
2022/11/22 00:04:39;;;;;;;63.30;7.07;;;;;;;;;;5084510;28;20212;-80
2022/11/22 00:07:06;;;;;;;64.60;8.40;;;;;;;;;;5082595;28;20942;-80
2022/11/22 00:09:33;;;;;;;63.77;7.33;;;;;;;;;;5081804;28;20229;-79
2022/11/22 00:12:01;;;;;;;64.63;7.70;;;;;;;;;;5082498;28;20454;-79
2022/11/22 00:14:28;;;;;;;62.63;7.45;;;;;;;;;;5082856;28;20680;-79
2022/11/22 00:16:55;;;;;;;62.80;6.85;;;;;;;;;;5082144;28;20557;-79
2022/11/22 00:19:23;;;;;;;63.00;7.17;;;;;;;;;;5082194;28;20278;-79
2022/11/22 00:21:51;;;;;;;62.90;7.43;;;;;;;;;;5082413;28;20555;-80
2022/11/22 00:24:18;;;;;;;64.70;8.33;;;;;;;;;;5082896;28;20297;-81
2022/11/22 00:26:45;;;;;;;63.08;7.07;;;;;;;;;;5082981;28;20475;-80
2022/11/22 00:29:13;;;;;;;67.90;8.13;;;;;;;;;;5083139;28;20313;-80
2022/11/22 00:31:40;;;;;;;68.82;8.00;;;;;;;;;;5084344;28;20504;-80
2022/11/22 00:34:07;;;;;;;64.18;7.88;;;;;;;;;;5084793;28;20263;-80
2022/11/22 00:36:36;;;;;;;65.93;7.47;;;;;;;;;;5085293;28;20232;-80
2022/11/22 00:39:03;;;;;;;62.45;7.10;;;;;;;;;;5085059;28;20474;-80
2022/11/22 00:41:30;;;;;;;62.33;6.80;;;;;;;;;;5086574;28;20240;-80
2022/11/22 00:43:57;;;;;;;63.88;6.60;;;;;;;;;;5087248;28;20269;-80
2022/11/22 00:46:24;;;;;;;62.13;6.53;;;;;;;;;;5087013;28;20244;-80
2022/11/22 00:48:51;;;;;;;61.67;6.72;;;;;;;;;;5087044;28;20482;-80
2022/11/22 00:51:19;;;;;;;66.55;7.28;;;;;;;;;;5087474;28;20311;-79
2022/11/22 00:53:47;;;;;;;62.95;7.80;;;;;;;;;;5088157;28;20205;-80
2022/11/22 00:56:14;;;;;;;64.30;7.18;;;;;;;;;;5088233;28;20239;-79
2022/11/22 00:58:41;;;;;;;65.38;7.57;;;;;;;;;;5088293;28;20692;-79
2022/11/22 01:01:09;;;;;;;65.53;7.60;;;;;;;;;;5088903;28;20268;-79
2022/11/22 01:03:36;;;;;;;68.90;7.30;;;;;;;;;;5089310;28;20455;-79
2022/11/22 01:06:03;;;;;;;66.13;7.90;;;;;;;;;;5089719;28;20236;-79
2022/11/22 01:08:30;;;;;;;69.77;7.97;;;;;;;;;;5089330;28;20467;-79
2022/11/22 01:10:59;;;;;;;61.90;7.20;;;;;;;;;;5089358;28;20565;-79
2022/11/22 01:13:27;;;;;;;61.77;6.97;;;;;;;;;;5088621;28;20971;-79
2022/11/22 01:15:54;;;;;;;62.08;7.43;;;;;;;;;;5089322;28;20458;-79
2022/11/22 01:18:21;;;;;;;63.08;7.10;;;;;;;;;;5089779;28;20578;-79
2022/11/22 01:20:48;;;;;;;63.55;6.85;;;;;;;;;;5087988;28;20208;-79
2022/11/22 01:23:16;;;;;;;62.75;7.40;;;;;;;;;;5088761;28;20548;-79
2022/11/22 01:25:43;;;;;;;62.53;7.70;;;;;;;;;;5089277;28;20239;-79
2022/11/22 01:28:12;;;;;;;64.00;7.13;;;;;;;;;;5089239;28;20243;-79
2022/11/22 01:30:39;;;;;;;63.40;6.03;;;;;;;;;;5089374;28;20510;-78
2022/11/22 01:33:06;;;;;;;63.63;7.50;;;;;;;;;;5088983;28;20253;-78
2022/11/22 01:35:34;;;;;;;62.30;6.80;;;;;;;;;;5087742;28;20474;-78
2022/11/22 01:38:01;;;;;;;61.70;6.40;;;;;;;;;;5088034;28;20459;-78
2022/11/22 01:40:28;;;;;;;60.40;6.30;;;;;;;;;;5087541;28;20987;-78
2022/11/22 01:42:56;;;;;;;62.85;6.00;;;;;;;;;;5087808;28;20208;-78
2022/11/22 01:45:45;;;;;;;62.23;6.80;;;;;;;;;;5087182;28;20212;-78
2022/11/22 01:48:24;;;;;;;61.60;6.20;;;;;;;;;;5085966;28;20498;-78
2022/11/22 01:50:53;;;;;;;61.07;5.50;;;;;;;;;;5085617;28;20489;-78
2022/11/22 01:53:21;;;;;;;61.35;5.50;;;;;;;;;;5086303;28;20883;-78
2022/11/22 01:55:50;;;;;;;62.20;5.83;;;;;;;;;;5085496;28;20213;-78
2022/11/22 01:58:18;;;;;;;60.17;5.10;;;;;;;;;;5083359;28;21046;-78
2022/11/22 02:00:46;;;;;;;63.73;5.90;;;;;;;;;;5081675;28;20204;-78
2022/11/22 02:03:15;;;;;;;61.20;5.43;;;;;;;;;;5082321;28;20485;-77
2022/11/22 02:05:43;;;;;;;63.10;5.90;;;;;;;;;;5081694;28;20990;-77
2022/11/22 02:08:13;;;;;;;65.40;5.67;;;;;;;;;;5079893;28;20499;-77
2022/11/22 02:10:42;;;;;;;61.17;4.90;;;;;;;;;;5079125;28;20565;-77
2022/11/22 02:13:11;;;;;;;60.00;4.50;;;;;;;;;;5077403;28;20501;-77
2022/11/22 02:15:38;;;;;;;60.10;4.80;;;;;;;;;;5078504;28;20475;-77
2022/11/22 02:18:06;;;;;;;64.20;4.90;;;;;;;;;;5077878;28;20560;-77
2022/11/22 02:20:33;;;;;;;59.33;5.30;;;;;;;;;;5076583;28;20486;-77
2022/11/22 02:23:05;;;;;;;62.00;4.90;;;;;;;;;;5076915;28;20456;-77
2022/11/22 02:25:36;;;;;;;58.73;4.40;;;;;;;;;;5076625;28;20451;-77
2022/11/22 02:28:05;;;;;;;59.50;4.83;;;;;;;;;;5075043;28;20566;-77
2022/11/22 02:30:32;;;;;;;59.80;4.50;;;;;;;;;;5078757;28;20488;-77
2022/11/22 02:32:59;;;;;;;61.90;4.60;;;;;;;;;;5080559;28;20475;-78
2022/11/22 02:35:27;;;;;;;60.30;4.23;;;;;;;;;;5082673;28;20512;-81
2022/11/22 02:37:57;;;;;;;61.70;4.90;;;;;;;;;;5076228;28;20899;-80
2022/11/22 02:40:24;;;;;;;60.97;4.70;;;;;;;;;;5075604;28;20471;-79
2022/11/22 02:42:56;;;;;;;65.40;4.60;;;;;;;;;;5072853;28;20454;-78
2022/11/22 02:45:24;;;;;;;59.87;4.43;;;;;;;;;;5072457;28;20490;-77
2022/11/22 02:47:51;;;;;;;61.60;4.87;;;;;;;;;;5068218;28;20461;-77
2022/11/22 02:50:19;;;;;;;62.13;4.93;;;;;;;;;;5071462;28;20573;-78
2022/11/22 02:52:46;;;;;;;61.83;5.57;;;;;;;;;;5072120;28;20451;-78
2022/11/22 02:55:13;;;;;;;63.43;5.13;;;;;;;;;;5072189;28;20295;-78
2022/11/22 02:57:40;;;;;;;59.03;4.97;;;;;;;;;;5072269;28;20458;-78
2022/11/22 03:00:08;;;;;;;65.20;5.30;;;;;;;;;;5072187;28;20549;-78
2022/11/22 03:02:36;;;;;;;61.37;5.20;;;;;;;;;;5072320;28;20513;-78
2022/11/22 03:05:03;;;;;;;61.20;5.20;;;;;;;;;;5072239;28;20539;-78
2022/11/22 03:07:31;;;;;;;62.00;5.73;;;;;;;;;;5072420;28;21034;-78
2022/11/22 03:09:58;;;;;;;62.17;5.77;;;;;;;;;;5071768;28;20470;-79
2022/11/22 03:12:25;;;;;;;61.27;5.00;;;;;;;;;;5072517;28;20482;-78
2022/11/22 03:14:52;;;;;;;60.80;5.00;;;;;;;;;;5072490;28;20525;-79
2022/11/22 03:17:19;;;;;;;63.45;6.07;;;;;;;;;;5073111;28;20469;-80
2022/11/22 03:19:48;;;;;;;63.17;4.83;;;;;;;;;;5072048;28;20735;-78
2022/11/22 03:22:15;;;;;;;62.07;6.20;;;;;;;;;;5072638;28;20483;-79
2022/11/22 03:24:42;;;;;;;62.20;5.13;;;;;;;;;;5072135;28;20497;-78
2022/11/22 03:27:09;;;;;;;61.00;5.90;;;;;;;;;;5072166;28;20458;-78
2022/11/22 03:29:36;;;;;;;63.90;5.75;;;;;;;;;;5071411;28;20474;-80
2022/11/22 03:32:03;;;;;;;61.50;5.20;;;;;;;;;;5072155;28;20317;-79
2022/11/22 03:34:31;;;;;;;60.90;5.17;;;;;;;;;;5072242;28;20487;-79
2022/11/22 03:36:59;;;;;;;63.43;6.30;;;;;;;;;;5072224;28;20449;-79
2022/11/22 03:39:26;;;;;;;61.87;5.37;;;;;;;;;;5070794;28;20557;-79
2022/11/22 03:41:55;;;;;;;60.97;6.00;;;;;;;;;;5071919;28;20534;-78
2022/11/22 03:44:22;;;;;;;61.17;5.50;;;;;;;;;;5072195;28;20444;-79
2022/11/22 03:46:49;;;;;;;62.92;5.53;;;;;;;;;;5072230;28;20531;-79
2022/11/22 03:49:16;;;;;;;63.13;5.77;;;;;;;;;;5071482;28;20618;-79
2022/11/22 03:51:43;;;;;;;61.23;5.30;;;;;;;;;;5072037;28;21022;-79
2022/11/22 03:54:12;;;;;;;60.13;5.30;;;;;;;;;;5072134;28;20494;-79
2022/11/22 03:56:39;;;;;;;59.67;4.90;;;;;;;;;;5072249;28;20994;-79
2022/11/22 03:59:06;;;;;;;60.30;5.00;;;;;;;;;;5071169;28;20495;-79
2022/11/22 04:01:33;;;;;;;60.63;5.50;;;;;;;;;;5072163;28;20475;-80
2022/11/22 04:04:00;;;;;;;60.58;5.40;;;;;;;;;;5072612;28;20205;-79
2022/11/22 04:06:27;;;;;;;62.23;4.93;;;;;;;;;;5072978;28;20665;-79
2022/11/22 04:08:55;;;;;;;61.10;4.90;;;;;;;;;;5071650;28;20546;-79
2022/11/22 04:11:23;;;;;;;64.40;6.93;;;;;;;;;;5072510;28;20667;-79
2022/11/22 04:16:35;;;;;;;60.55;5.70;;;;;;;;;;5073015;28;20793;-79
2022/11/22 04:19:02;;;;;;;66.97;9.35;;;;;;;;;;5072267;28;20319;-79
2022/11/22 04:21:34;;;;;;;66.90;10.05;;;;;;;;;;5072995;28;20240;-79
2022/11/22 04:26:48;;;;;;;64.87;8.27;;;;;;;;;;5073005;28;20485;-79
2022/11/22 04:29:15;;;;;;;63.53;6.97;;;;;;;;;;5072197;28;20545;-79
2022/11/22 04:34:27;;;;;;;62.93;5.30;;;;;;;;;;5073153;28;20466;-79
2022/11/22 04:36:54;;;;;;;62.03;5.30;;;;;;;;;;5076436;28;20962;-80
2022/11/22 04:39:21;;;;;;;64.10;7.60;;;;;;;;;;5076121;28;20236;-80
2022/11/22 04:44:39;;;;;;;68.63;10.77;;;;;;;;;;5076052;28;20235;-80
2022/11/22 04:44:42;;;;;;;63.50;6.90;;;;;;;;;;5076656;28;20450;-80
2022/11/22 04:47:09;;;;;;;62.57;6.37;;;;;;;;;;5076716;28;20624;-80
2022/11/22 04:49:36;;;;;;;61.80;6.90;;;;;;;;;;5075866;28;20480;-79
2022/11/22 04:54:49;;;;;;;62.08;5.65;;;;;;;;;;5076506;28;20256;-80
2022/11/22 04:57:18;;;;;;;60.70;5.13;;;;;;;;;;5076365;28;20208;-79
2022/11/22 04:59:45;;;;;;;61.53;4.95;;;;;;;;;;5075796;28;20252;-80
2022/11/22 05:02:12;;;;;;;61.33;5.95;;;;;;;;;;5076750;28;20262;-79
2022/11/22 05:04:39;;;;;;;70.60;14.18;;;;;;;;;;5076116;28;20343;-80
2022/11/22 05:07:06;;;;;;;70.55;11.15;;;;;;;;;;5076392;28;20299;-79
2022/11/22 05:09:33;;;;;;;62.88;7.55;;;;;;;;;;5075480;28;20741;-79
2022/11/22 05:12:00;;;;;;;61.25;6.50;;;;;;;;;;5075978;28;20226;-79
2022/11/22 05:14:29;;;;;;;60.90;5.93;;;;;;;;;;5077286;28;20299;-79
2022/11/22 05:16:56;;;;;;;61.42;5.25;;;;;;;;;;5075801;28;20249;-79
2022/11/22 05:19:23;;;;;;;60.58;5.22;;;;;;;;;;5075239;28;20265;-79
2022/11/22 05:21:50;;;;;;;60.22;4.90;;;;;;;;;;5075821;28;20237;-79
2022/11/22 05:24:16;;;;;;;59.25;4.65;;;;;;;;;;5076274;28;20215;-79
2022/11/22 05:26:44;;;;;;;60.80;5.70;;;;;;;;;;5075870;28;20202;-79
2022/11/22 05:29:11;;;;;;;61.42;4.78;;;;;;;;;;5075426;28;20257;-79
2022/11/22 05:31:41;;;;;;;60.75;5.90;;;;;;;;;;5076210;28;20235;-79
2022/11/22 05:34:08;;;;;;;59.38;4.40;;;;;;;;;;5076178;28;20276;-79
2022/11/22 05:36:36;;;;;;;64.40;5.70;;;;;;;;;;5076184;28;20207;-79
2022/11/22 05:39:03;;;;;;;62.13;5.75;;;;;;;;;;5075521;28;20258;-78
2022/11/22 05:41:30;;;;;;;63.63;5.47;;;;;;;;;;5076341;28;20234;-79
2022/11/22 05:43:57;;;;;;;61.78;5.35;;;;;;;;;;5076150;28;20247;-79
2022/11/22 05:46:25;;;;;;;60.90;5.35;;;;;;;;;;5075778;28;20672;-80
2022/11/22 05:48:54;;;;;;;62.85;5.13;;;;;;;;;;5074182;28;20322;-80
2022/11/22 05:51:23;;;;;;;61.00;5.68;;;;;;;;;;5075247;28;20236;-80
2022/11/22 05:53:50;;;;;;;61.53;5.30;;;;;;;;;;5075449;28;20242;-80
2022/11/22 05:56:18;;;;;;;61.15;5.60;;;;;;;;;;5075633;28;20250;-80
2022/11/22 05:58:46;;;;;;;62.35;5.00;;;;;;;;;;5074719;28;20224;-80
2022/11/22 06:01:14;;;;;;;63.30;6.82;;;;;;;;;;5075362;28;20681;-80
2022/11/22 06:03:41;;;;;;;65.32;8.38;;;;;;;;;;5075625;28;20238;-79
2022/11/22 06:06:10;;;;;;;64.95;7.10;;;;;;;;;;5075359;28;20242;-80
2022/11/22 06:08:39;;;;;;;63.97;6.50;;;;;;;;;;5074851;28;20266;-80
2022/11/22 06:11:07;;;;;;;63.22;6.18;;;;;;;;;;5074985;28;20220;-80
2022/11/22 06:13:35;;;;;;;61.20;5.93;;;;;;;;;;5075865;28;20295;-79
2022/11/22 06:16:02;;;;;;;63.90;6.68;;;;;;;;;;5075220;28;20644;-80
2022/11/22 06:18:29;;;;;;;62.80;7.22;;;;;;;;;;5074886;28;20727;-81
2022/11/22 06:20:57;;;;;;;63.78;6.60;;;;;;;;;;5074974;28;20313;-80
2022/11/22 06:23:26;;;;;;;69.05;8.32;;;;;;;;;;5075442;28;20240;-80
2022/11/22 06:25:57;;;;;;;64.60;6.45;;;;;;;;;;5074796;28;20244;-80
2022/11/22 06:28:24;;;;;;;63.97;6.30;;;;;;;;;;5074745;28;20234;-80
2022/11/22 06:30:51;;;;;;;65.38;6.43;;;;;;;;;;5073736;28;20239;-79
2022/11/22 06:33:18;;;;;;;65.15;6.40;;;;;;;;;;5074914;28;20295;-80
2022/11/22 06:35:46;;;;;;;63.03;6.80;;;;;;;;;;5074685;28;20405;-80
2022/11/22 06:38:13;;;;;;;64.40;7.03;;;;;;;;;;5075034;28;20354;-80
2022/11/22 06:40:41;;;;;;;66.68;7.78;;;;;;;;;;5074416;28;20227;-80
2022/11/22 06:43:08;;;;;;;65.55;7.28;;;;;;;;;;5074992;28;20291;-79
2022/11/22 06:45:35;;;;;;;62.97;7.10;;;;;;;;;;5075416;28;20705;-80
2022/11/22 06:48:03;;;;;;;64.45;7.80;;;;;;;;;;5075331;28;20319;-79
2022/11/22 06:50:30;;;;;;;64.72;7.63;;;;;;;;;;5074476;28;20240;-80
2022/11/22 06:52:57;;;;;;;64.72;8.07;;;;;;;;;;5075171;28;20223;-80
2022/11/22 06:55:24;;;;;;;65.38;7.43;;;;;;;;;;5074858;28;20620;-80
2022/11/22 06:57:52;;;;;;;69.22;8.57;;;;;;;;;;5074354;28;20666;-80
2022/11/22 07:00:20;;;;;;;64.30;7.38;;;;;;;;;;5074335;28;20257;-80
2022/11/22 07:02:50;;;;;;;65.65;8.32;;;;;;;;;;5069261;28;20239;-81
2022/11/22 07:05:17;;;;;;;65.40;8.45;;;;;;;;;;5063805;28;20230;-80
2022/11/22 07:07:44;;;;;;;66.72;8.82;;;;;;;;;;5066057;28;20287;-80
2022/11/22 07:10:11;;;;;;;65.20;9.10;;;;;;;;;;5054699;28;20220;-80
2022/11/22 07:12:39;;;;;;;73.65;9.40;;;;;;;;;;5055592;28;20319;-80
2022/11/22 07:15:08;;;;;;;70.50;11.10;;;;;;;;;;5056191;28;20205;-80
2022/11/22 07:17:35;;;;;;;66.97;9.77;;;;;;;;;;5055725;28;20678;-81
2022/11/22 07:20:02;;;;;;;71.57;11.27;;;;;;;;;;5054933;28;20322;-81
2022/11/22 07:22:29;;;;;;;66.13;9.75;;;;;;;;;;5056017;28;20257;-80
2022/11/22 07:24:56;;;;;;;68.43;9.43;;;;;;;;;;5055453;28;20243;-81
2022/11/22 07:27:23;;;;;;;66.25;9.43;;;;;;;;;;5055462;28;20237;-80
2022/11/22 07:29:50;;;;;;;66.47;10.35;;;;;;;;;;5055331;28;20237;-81
2022/11/22 07:32:19;;;;;;;69.03;9.68;;;;;;;;;;5055342;28;20256;-81
2022/11/22 07:34:46;;;;;;;67.05;9.18;;;;;;;;;;5055345;28;20249;-80
2022/11/22 07:37:13;;;;;;;72.53;10.63;;;;;;;;;;5062666;28;20462;-81
2022/11/22 07:39:40;;;;;;;68.32;11.13;;;;;;;;;;5078324;28;20260;-81
2022/11/22 07:42:08;;;;;;;69.65;11.77;;;;;;;;;;5074414;28;20236;-80
2022/11/22 07:44:35;;;;;;;69.03;9.73;;;;;;;;;;5074733;28;20272;-81
2022/11/22 07:47:02;;;;;;;64.43;8.25;;;;;;;;;;5075400;28;20427;-81
2022/11/22 07:49:41;;;;;;;69.32;9.20;;;;;;;;;;5076987;22;20258;-83
2022/11/22 07:52:26;;;;;;;68.07;9.75;;;;;;;;;;5016450;28;20213;-81
2022/11/22 07:54:53;;;;;;;67.83;9.67;;;;;;;;;;4993551;28;20234;-82
2022/11/22 07:57:20;;;;;;;67.82;8.82;;;;;;;;;;4995076;28;20515;-84
2022/11/22 07:59:47;;;;;;;64.53;8.57;;;;;;;;;;4993449;28;20667;-82
2022/11/22 08:02:14;;;;;;;64.65;9.10;;;;;;;;;;4994211;28;20458;-82
2022/11/22 08:04:43;;;;;;;64.22;9.15;;;;;;;;;;4999436;28;20311;-81
2022/11/22 08:07:10;;;;;;;67.50;10.32;;;;;;;;;;5013495;28;20214;-81
2022/11/22 08:09:38;;;;;;;66.47;9.32;;;;;;;;;;5013724;28;20353;-82
2022/11/22 08:12:05;;;;;;;67.57;8.83;;;;;;;;;;5017634;28;20294;-81
2022/11/22 08:14:32;;;;;;;66.80;9.18;;;;;;;;;;5017929;28;20536;-82
2022/11/22 08:16:59;;;;;;;64.70;8.47;;;;;;;;;;5018295;28;20213;-82
2022/11/22 08:19:26;;;;;;;64.77;8.70;;;;;;;;;;5016659;28;20560;-82
2022/11/22 08:21:55;;;;;;;67.80;8.43;;;;;;;;;;5017616;28;20434;-82
2022/11/22 08:24:22;;;;;;;68.60;9.43;;;;;;;;;;5017660;28;20305;-82
2022/11/22 08:26:51;;;;;;;70.40;9.67;;;;;;;;;;5017675;28;20542;-82
2022/11/22 08:29:18;;;;;;;66.25;9.25;;;;;;;;;;5017720;28;20485;-82
2022/11/22 08:31:45;;;;;;;67.60;9.33;;;;;;;;;;5025235;28;20231;-82
2022/11/22 08:34:12;;;;;;;67.60;10.40;;;;;;;;;;5040304;28;20544;-82
2022/11/22 08:36:39;;;;;;;69.50;9.30;;;;;;;;;;5040489;28;20464;-82
2022/11/22 08:39:08;;;;;;;67.10;9.00;;;;;;;;;;5038950;28;20527;-82
2022/11/22 08:41:35;;;;;;;67.88;9.32;;;;;;;;;;5039952;28;20461;-82
2022/11/22 08:44:02;;;;;;;68.53;9.27;;;;;;;;;;5044016;28;20566;-82
2022/11/22 08:46:30;;;;;;;66.00;8.93;;;;;;;;;;5044459;28;20476;-82
2022/11/22 08:48:57;;;;;;;67.17;9.10;;;;;;;;;;5043302;28;20485;-82
2022/11/22 08:51:24;;;;;;;63.80;8.63;;;;;;;;;;5044235;28;20480;-82
2022/11/22 08:53:51;;;;;;;71.00;10.20;;;;;;;;;;5041913;28;20984;-82
2022/11/22 08:56:19;;;;;;;69.17;8.50;;;;;;;;;;5039647;28;20493;-82
2022/11/22 08:58:47;;;;;;;64.07;8.37;;;;;;;;;;5038921;28;21050;-82
2022/11/22 09:01:15;;;;;;;62.03;7.50;;;;;;;;;;5039522;28;20485;-82
2022/11/22 09:03:43;;;;;;;64.67;8.27;;;;;;;;;;5039089;28;20880;-82
2022/11/22 09:06:11;;;;;;;65.63;8.20;;;;;;;;;;5039156;28;20469;-82
2022/11/22 09:08:38;;;;;;;70.80;6.90;;;;;;;;;;5038536;28;20469;-82
2022/11/22 09:11:06;;;;;;;66.60;6.90;;;;;;;;;;5039895;28;20549;-82
2022/11/22 09:13:35;;;;;;;64.80;7.37;;;;;;;;;;5039057;28;20588;-82
2022/11/22 09:16:03;;;;;;;62.20;7.53;;;;;;;;;;5039790;28;20877;-82
2022/11/22 09:18:30;;;;;;;67.30;7.57;;;;;;;;;;5039383;28;20560;-82
2022/11/22 09:20:58;;;;;;;70.43;7.60;;;;;;;;;;5038810;28;20528;-82
2022/11/22 09:23:25;;;;;;;63.10;5.70;;;;;;;;;;5039775;28;20484;-82
2022/11/22 09:25:57;;;;;;;67.07;5.83;;;;;;;;;;5039633;28;20482;-81
2022/11/22 09:28:24;;;;;;;67.53;6.63;;;;;;;;;;5039441;28;20472;-82
2022/11/22 09:30:58;;;;;;;63.60;5.83;;;;;;;;;;5039271;28;20532;-81
2022/11/22 09:33:25;;;;;;;62.60;4.97;;;;;;;;;;5039552;28;20543;-81
2022/11/22 09:35:54;;;;;;;61.87;5.07;;;;;;;;;;5039975;28;20484;-81
2022/11/22 09:38:21;;;;;;;61.20;4.73;;;;;;;;;;5043190;28;20480;-81
2022/11/22 09:40:48;;;;;;;66.80;5.47;;;;;;;;;;5047834;28;20534;-81
2022/11/22 09:43:20;;;;;;;61.73;4.57;;;;;;;;;;5050260;28;20452;-80
2022/11/22 09:45:55;;;;;;;60.10;4.37;;;;;;;;;;5054368;28;20484;-79
2022/11/22 09:48:30;;;;;;;62.67;5.70;;;;;;;;;;5049647;28;20476;-79
2022/11/22 09:51:03;;;;;;;65.37;6.20;;;;;;;;;;5048408;28;20494;-79
2022/11/22 09:53:34;;;;;;;61.30;4.80;;;;;;;;;;5048206;28;20495;-79
2022/11/22 09:56:03;;;;;;;64.20;4.20;;;;;;;;;;5046778;28;20473;-79
2022/11/22 09:58:32;;;;;;;62.67;4.70;;;;;;;;;;5045298;28;20508;-78
2022/11/22 10:01:03;;;;;;;66.40;4.40;;;;;;;;;;5043691;28;20933;-78
2022/11/22 10:03:39;;;;;;;62.77;4.70;;;;;;;;;;5041706;28;20497;-78
2022/11/22 10:06:08;;;;;;;61.80;4.57;;;;;;;;;;5041396;28;20907;-78
2022/11/22 10:08:37;;;;;;;61.37;4.70;;;;;;;;;;5038351;28;20509;-77
2022/11/22 10:11:11;;;;;;;62.97;4.73;;;;;;;;;;5037279;28;20536;-78
2022/11/22 10:13:41;;;;;;;66.70;4.97;;;;;;;;;;5035666;28;20571;-78
2022/11/22 10:16:13;;;;;;;61.10;4.27;;;;;;;;;;5035352;28;20496;-77
2022/11/22 10:18:44;;;;;;;66.63;4.63;;;;;;;;;;5033863;28;20894;-77
2022/11/22 10:21:12;;;;;;;61.53;3.90;;;;;;;;;;5034231;28;21025;-77
2022/11/22 10:23:41;;;;;;;66.27;3.93;;;;;;;;;;5033798;28;20452;-77
2022/11/22 10:26:15;;;;;;;65.47;4.57;;;;;;;;;;5033567;28;20453;-77
2022/11/22 10:28:45;;;;;;;61.37;4.07;;;;;;;;;;5032702;28;20496;-77
2022/11/22 10:31:17;;;;;;;62.63;3.87;;;;;;;;;;5033398;28;20492;-77
2022/11/22 10:33:47;;;;;;;63.30;5.07;;;;;;;;;;5032512;28;20500;-77
2022/11/22 10:36:27;;;;;;;65.10;4.90;;;;;;;;;;5033198;28;21034;-77
2022/11/22 10:39:03;;;;;;;60.30;4.53;;;;;;;;;;5032080;28;20508;-77
2022/11/22 10:41:39;;;;;;;61.80;4.40;;;;;;;;;;5033010;28;20469;-77
2022/11/22 10:44:15;;;;;;;65.87;4.73;;;;;;;;;;5032811;28;20448;-77
2022/11/22 10:46:48;;;;;;;61.47;3.70;;;;;;;;;;5032714;28;21028;-77
2022/11/22 10:49:21;;;;;;;62.73;4.20;;;;;;;;;;5031333;28;21005;-77
2022/11/22 10:51:51;;;;;;;63.33;4.10;;;;;;;;;;5032657;28;20879;-77
2022/11/22 10:54:22;;;;;;;64.97;4.13;;;;;;;;;;5032760;28;20862;-77
2022/11/22 10:56:52;;;;;;;60.07;3.53;;;;;;;;;;5032835;28;20507;-77
2022/11/22 10:59:23;;;;;;;64.07;3.93;;;;;;;;;;5031629;28;20500;-77
2022/11/22 11:01:58;;;;;;;63.80;4.40;;;;;;;;;;5032344;28;20536;-77
2022/11/22 11:04:28;;;;;;;64.80;4.07;;;;;;;;;;5032364;28;20455;-77
2022/11/22 11:06:57;;;;;;;64.77;3.80;;;;;;;;;;5032501;28;20449;-77
2022/11/22 11:09:29;;;;;;;65.70;4.20;;;;;;;;;;5031530;28;20579;-77
2022/11/22 11:11:56;;;;;;;62.50;4.17;;;;;;;;;;5032131;28;20495;-77
2022/11/22 11:14:26;;;;;;;63.30;4.20;;;;;;;;;;5032212;28;20577;-77
2022/11/22 11:16:54;;;;;;;66.27;4.67;;;;;;;;;;5032558;28;20445;-77
2022/11/22 11:19:22;;;;;;;63.10;4.77;;;;;;;;;;5031284;28;20544;-77
2022/11/22 11:21:53;;;;;;;61.77;4.70;;;;;;;;;;5032086;28;20463;-77
2022/11/22 11:24:20;;;;;;;63.20;4.40;;;;;;;;;;5031927;28;20485;-77
2022/11/22 11:26:52;;;;;;;59.27;3.80;;;;;;;;;;5016560;28;20573;-77
2022/11/22 11:29:34;;;;;;;62.20;3.60;;;;;;;;;;5031197;28;20479;-77
2022/11/22 11:32:11;;;;;;;67.13;4.50;;;;;;;;;;5031849;28;20476;-77
2022/11/22 11:34:40;;;;;;;61.97;3.93;;;;;;;;;;5031773;28;20800;-77
2022/11/22 11:37:17;;;;;;;64.20;5.10;;;;;;;;;;5031669;28;20783;-77
2022/11/22 11:39:46;;;;;;;61.70;4.60;;;;;;;;;;5031176;28;20483;-77
2022/11/22 11:42:21;;;;;;;63.80;4.60;;;;;;;;;;5031864;28;20485;-77
2022/11/22 11:44:48;;;;;;;61.07;3.70;;;;;;;;;;5034108;28;20448;-78
2022/11/22 11:47:18;;;;;;;70.33;4.83;;;;;;;;;;5035690;28;21044;-77
2022/11/22 11:49:51;;;;;;;62.90;4.40;;;;;;;;;;5030671;28;20588;-76
2022/11/22 11:52:21;;;;;;;60.67;3.60;;;;;;;;;;5035659;28;20444;-76
2022/11/22 11:54:49;;;;;;;63.37;3.87;;;;;;;;;;5035825;28;20485;-76
2022/11/22 11:57:16;;;;;;;61.13;3.50;;;;;;;;;;5035907;28;20536;-77
2022/11/22 11:59:45;;;;;;;61.83;3.50;;;;;;;;;;5036673;28;21194;-77
2022/11/22 12:02:15;;;;;;;62.50;4.10;;;;;;;;;;5035544;28;21051;-77
2022/11/22 12:04:48;;;;;;;59.63;2.93;;;;;;;;;;5035905;28;20824;-76
2022/11/22 12:07:21;;;;;;;59.90;3.10;;;;;;;;;;5036705;28;20449;-77
2022/11/22 12:09:49;;;;;;;64.70;3.47;;;;;;;;;;5033556;28;20504;-77
2022/11/22 12:12:34;;;;;;;61.47;3.20;;;;;;;;;;5035287;28;20934;-77
2022/11/22 12:15:05;;;;;;;63.07;3.70;;;;;;;;;;4995263;28;20525;-77
2022/11/22 12:17:36;;;;;;;60.57;3.50;;;;;;;;;;4995837;28;20891;-77
2022/11/22 12:20:04;;;;;;;61.83;3.60;;;;;;;;;;4994931;28;20502;-77
2022/11/22 12:22:36;;;;;;;61.03;3.60;;;;;;;;;;4995737;28;20537;-77
2022/11/22 12:25:09;;;;;;;61.87;3.90;;;;;;;;;;4995361;28;20491;-77
2022/11/22 12:27:36;;;;;;;63.27;3.70;;;;;;;;;;4995671;28;20543;-77
2022/11/22 12:30:05;;;;;;;59.03;3.13;;;;;;;;;;4994503;28;20498;-77
2022/11/22 12:32:34;;;;;;;64.40;4.33;;;;;;;;;;4995253;28;20459;-77
2022/11/22 12:35:03;;;;;;;59.87;3.80;;;;;;;;;;4995291;28;20459;-77
2022/11/22 12:37:32;;;;;;;61.20;4.17;;;;;;;;;;4995041;28;20951;-77
2022/11/22 12:40:02;;;;;;;62.83;4.07;;;;;;;;;;4994513;28;20467;-77
2022/11/22 12:42:32;;;;;;;62.87;3.37;;;;;;;;;;4995259;28;20486;-78
2022/11/22 12:45:02;;;;;;;66.07;3.70;;;;;;;;;;4996046;28;20534;-77
2022/11/22 12:47:32;;;;;;;63.93;4.03;;;;;;;;;;5014572;28;20461;-77
2022/11/22 12:50:03;;;;;;;60.83;3.80;;;;;;;;;;5013311;28;20489;-77
2022/11/22 12:52:32;;;;;;;64.30;3.80;;;;;;;;;;5014346;28;20545;-77
2022/11/22 12:55:03;;;;;;;61.83;3.70;;;;;;;;;;5014427;28;20575;-77
2022/11/22 12:57:36;;;;;;;61.23;3.67;;;;;;;;;;5014726;28;20866;-77
2022/11/22 13:00:05;;;;;;;60.90;3.30;;;;;;;;;;5013986;28;20526;-77
2022/11/22 13:02:33;;;;;;;61.80;3.30;;;;;;;;;;5014254;28;20450;-77
2022/11/22 13:05:02;;;;;;;64.10;3.40;;;;;;;;;;5014752;28;20449;-77
2022/11/22 13:07:38;;;;;;;63.70;3.90;;;;;;;;;;5014568;28;20545;-77
2022/11/22 13:10:09;;;;;;;61.73;3.60;;;;;;;;;;5013354;28;20468;-77
2022/11/22 13:12:39;;;;;;;59.67;3.37;;;;;;;;;;5014261;28;20875;-77
2022/11/22 13:15:07;;;;;;;60.27;3.33;;;;;;;;;;5013483;28;20462;-77
2022/11/22 13:17:35;;;;;;;63.50;4.50;;;;;;;;;;5017644;28;20485;-77
2022/11/22 13:20:05;;;;;;;61.30;4.00;;;;;;;;;;5033469;28;20476;-77
2022/11/22 13:22:36;;;;;;;62.33;3.90;;;;;;;;;;5032843;28;20455;-77
2022/11/22 13:25:11;;;;;;;60.40;3.40;;;;;;;;;;5033208;28;20551;-77
2022/11/22 13:27:43;;;;;;;63.07;4.20;;;;;;;;;;5033198;28;20877;-78
2022/11/22 13:30:17;;;;;;;61.70;3.80;;;;;;;;;;5032505;28;20487;-78
2022/11/22 13:32:48;;;;;;;60.97;3.70;;;;;;;;;;5033157;28;20901;-78
2022/11/22 13:35:25;;;;;;;64.40;3.77;;;;;;;;;;5032985;28;20528;-78
2022/11/22 13:37:54;;;;;;;62.20;3.30;;;;;;;;;;5033642;28;20536;-77
2022/11/22 13:40:27;;;;;;;61.37;3.83;;;;;;;;;;5033174;28;20492;-77
2022/11/22 13:43:13;;;;;;;62.13;4.27;;;;;;;;;;5033839;28;20449;-77
2022/11/22 13:45:46;;;;;;;59.83;3.30;;;;;;;;;;5033434;28;20507;-77
2022/11/22 13:48:13;;;;;;;60.87;3.43;;;;;;;;;;5032240;28;21009;-77
2022/11/22 13:50:56;;;;;;;68.30;4.63;;;;;;;;;;5017533;28;20458;-78
2022/11/22 13:53:25;;;;;;;64.87;3.83;;;;;;;;;;5013582;28;20485;-77
2022/11/22 13:55:53;;;;;;;61.37;3.17;;;;;;;;;;5013638;28;20458;-77
2022/11/22 13:58:51;;;;;;;59.47;3.17;;;;;;;;;;5013415;28;21014;-77
2022/11/22 14:01:48;;;;;;;63.40;3.70;;;;;;;;;;5013834;28;20446;-77
2022/11/22 14:04:20;;;;;;;60.10;3.73;;;;;;;;;;4991847;28;20458;-77
2022/11/22 14:06:48;;;;;;;59.70;3.37;;;;;;;;;;5008933;28;20891;-78
2022/11/22 14:09:16;;;;;;;64.67;4.27;;;;;;;;;;5011790;28;20474;-77
2022/11/22 14:11:49;;;;;;;59.77;3.60;;;;;;;;;;5013714;28;20450;-77
2022/11/22 14:14:21;;;;;;;61.40;4.53;;;;;;;;;;5013443;28;20922;-77
2022/11/22 14:16:58;;;;;;;61.40;3.53;;;;;;;;;;5013422;28;20532;-77
2022/11/22 14:19:34;;;;;;;59.97;3.27;;;;;;;;;;5012587;28;20901;-77
2022/11/22 14:22:10;;;;;;;62.37;3.60;;;;;;;;;;5009572;28;20454;-77
2022/11/22 14:24:44;;;;;;;60.30;2.93;;;;;;;;;;5013077;28;20537;-77
2022/11/22 14:27:22;;;;;;;60.87;3.20;;;;;;;;;;5013194;28;20455;-77
2022/11/22 14:29:58;;;;;;;58.40;3.30;;;;;;;;;;5012122;28;20863;-77
2022/11/22 14:32:26;;;;;;;60.67;3.50;;;;;;;;;;5012945;28;21015;-77
2022/11/22 14:35:18;;;;;;;59.30;3.30;;;;;;;;;;5012996;28;20958;-77
2022/11/22 14:37:46;;;;;;;58.90;3.10;;;;;;;;;;5012803;28;20505;-77
2022/11/22 14:40:27;;;;;;;60.77;3.53;;;;;;;;;;5011861;28;20458;-77
2022/11/22 14:43:00;;;;;;;61.27;3.27;;;;;;;;;;5012816;28;20465;-77
2022/11/22 14:45:30;;;;;;;59.37;3.50;;;;;;;;;;5012800;28;20458;-77
2022/11/22 14:48:05;;;;;;;62.57;3.63;;;;;;;;;;5012319;28;20450;-77
2022/11/22 14:50:34;;;;;;;59.37;3.07;;;;;;;;;;5012232;28;20493;-77
2022/11/22 14:53:06;;;;;;;60.10;4.00;;;;;;;;;;5009459;28;20916;-76